sensor_id;sensor_type;location;lat;lon;timestamp;P1;P2;P0
65012;PMS5003;51715;39.432;-77.518;2023-07-13T00:00:46;13;13;
65012;PMS5003;51715;39.432;-77.518;2023-07-13T00:03:14;20;19;
65012;PMS5003;51715;39.432;-77.518;2023-07-13T00:05:43;18;16;
65012;PMS5003;51715;39.432;-77.518;2023-07-13T00:08:11;13;13;
65012;PMS5003;51715;39.432;-77.518;2023-07-13T00:10:40;19;17;
65012;PMS5003;51715;39.432;-77.518;2023-07-13T00:13:08;14;14;
65012;PMS5003;51715;39.432;-77.518;2023-07-13T00:15:37;16;16;
65012;PMS5003;51715;39.432;-77.518;2023-07-13T00:18:06;16;16;
65012;PMS5003;51715;39.432;-77.518;2023-07-13T00:20:33;16;16;
65012;PMS5003;51715;39.432;-77.518;2023-07-13T00:23:03;19;19;
65012;PMS5003;51715;39.432;-77.518;2023-07-13T00:25:31;17;17;
65012;PMS5003;51715;39.432;-77.518;2023-07-13T00:27:59;15;14;
65012;PMS5003;51715;39.432;-77.518;2023-07-13T00:30:29;20;20;
65012;PMS5003;51715;39.432;-77.518;2023-07-13T00:33:04;16;16;
65012;PMS5003;51715;39.432;-77.518;2023-07-13T00:35:34;16;14;
65012;PMS5003;51715;39.432;-77.518;2023-07-13T00:38:02;18;17;
65012;PMS5003;51715;39.432;-77.518;2023-07-13T00:40:31;15;15;
65012;PMS5003;51715;39.432;-77.518;2023-07-13T00:43:01;15;15;
65012;PMS5003;51715;39.432;-77.518;2023-07-13T00:46:09;18;18;
65012;PMS5003;51715;39.432;-77.518;2023-07-13T00:48:42;14;14;
65012;PMS5003;51715;39.432;-77.518;2023-07-13T00:51:12;16;16;
65012;PMS5003;51715;39.432;-77.518;2023-07-13T00:53:43;17;16;
65012;PMS5003;51715;39.432;-77.518;2023-07-13T00:56:11;16;16;
65012;PMS5003;51715;39.432;-77.518;2023-07-13T00:58:40;15;14;
65012;PMS5003;51715;39.432;-77.518;2023-07-13T01:01:09;12;12;
65012;PMS5003;51715;39.432;-77.518;2023-07-13T01:03:38;19;19;
65012;PMS5003;51715;39.432;-77.518;2023-07-13T01:06:06;18;18;
65012;PMS5003;51715;39.432;-77.518;2023-07-13T01:08:35;17;17;
65012;PMS5003;51715;39.432;-77.518;2023-07-13T01:11:05;17;17;
65012;PMS5003;51715;39.432;-77.518;2023-07-13T01:13:33;19;17;
65012;PMS5003;51715;39.432;-77.518;2023-07-13T01:16:04;19;16;
65012;PMS5003;51715;39.432;-77.518;2023-07-13T01:18:45;20;20;
65012;PMS5003;51715;39.432;-77.518;2023-07-13T01:21:14;17;17;
65012;PMS5003;51715;39.432;-77.518;2023-07-13T01:23:44;18;17;
65012;PMS5003;51715;39.432;-77.518;2023-07-13T01:26:12;17;17;
65012;PMS5003;51715;39.432;-77.518;2023-07-13T01:28:40;21;21;
65012;PMS5003;51715;39.432;-77.518;2023-07-13T01:31:09;17;16;
65012;PMS5003;51715;39.432;-77.518;2023-07-13T01:33:37;19;19;
65012;PMS5003;51715;39.432;-77.518;2023-07-13T01:36:07;16;16;
65012;PMS5003;51715;39.432;-77.518;2023-07-13T01:38:36;16;16;
65012;PMS5003;51715;39.432;-77.518;2023-07-13T01:41:05;19;19;
65012;PMS5003;51715;39.432;-77.518;2023-07-13T01:43:34;21;21;
65012;PMS5003;51715;39.432;-77.518;2023-07-13T01:46:04;17;17;
65012;PMS5003;51715;39.432;-77.518;2023-07-13T01:48:33;17;17;
65012;PMS5003;51715;39.432;-77.518;2023-07-13T01:51:02;19;18;
65012;PMS5003;51715;39.432;-77.518;2023-07-13T01:53:31;18;17;
65012;PMS5003;51715;39.432;-77.518;2023-07-13T01:56:00;17;17;
65012;PMS5003;51715;39.432;-77.518;2023-07-13T01:58:28;20;19;
65012;PMS5003;51715;39.432;-77.518;2023-07-13T02:00:57;15;15;
65012;PMS5003;51715;39.432;-77.518;2023-07-13T02:03:27;16;16;
65012;PMS5003;51715;39.432;-77.518;2023-07-13T02:05:56;20;20;
65012;PMS5003;51715;39.432;-77.518;2023-07-13T02:08:25;17;16;
65012;PMS5003;51715;39.432;-77.518;2023-07-13T02:10:53;22;22;
65012;PMS5003;51715;39.432;-77.518;2023-07-13T02:13:21;18;18;
65012;PMS5003;51715;39.432;-77.518;2023-07-13T02:15:50;18;17;
65012;PMS5003;51715;39.432;-77.518;2023-07-13T02:18:18;18;18;
65012;PMS5003;51715;39.432;-77.518;2023-07-13T02:20:48;17;17;
65012;PMS5003;51715;39.432;-77.518;2023-07-13T02:23:17;19;18;
65012;PMS5003;51715;39.432;-77.518;2023-07-13T02:25:47;18;18;
65012;PMS5003;51715;39.432;-77.518;2023-07-13T02:28:15;17;17;
65012;PMS5003;51715;39.432;-77.518;2023-07-13T02:30:43;17;17;
65012;PMS5003;51715;39.432;-77.518;2023-07-13T02:33:13;16;16;
65012;PMS5003;51715;39.432;-77.518;2023-07-13T02:35:42;16;16;
65012;PMS5003;51715;39.432;-77.518;2023-07-13T02:38:10;19;19;
65012;PMS5003;51715;39.432;-77.518;2023-07-13T02:40:38;15;15;
65012;PMS5003;51715;39.432;-77.518;2023-07-13T02:43:06;20;19;
65012;PMS5003;51715;39.432;-77.518;2023-07-13T02:45:34;19;19;
65012;PMS5003;51715;39.432;-77.518;2023-07-13T02:48:02;17;17;
65012;PMS5003;51715;39.432;-77.518;2023-07-13T02:50:31;19;18;
65012;PMS5003;51715;39.432;-77.518;2023-07-13T02:52:59;22;21;
65012;PMS5003;51715;39.432;-77.518;2023-07-13T02:55:28;18;18;
65012;PMS5003;51715;39.432;-77.518;2023-07-13T02:57:56;23;23;
65012;PMS5003;51715;39.432;-77.518;2023-07-13T03:00:25;18;15;
65012;PMS5003;51715;39.432;-77.518;2023-07-13T03:02:54;24;21;
65012;PMS5003;51715;39.432;-77.518;2023-07-13T03:05:23;21;20;
65012;PMS5003;51715;39.432;-77.518;2023-07-13T03:07:51;19;18;
65012;PMS5003;51715;39.432;-77.518;2023-07-13T03:10:19;21;21;
65012;PMS5003;51715;39.432;-77.518;2023-07-13T03:12:48;25;23;
65012;PMS5003;51715;39.432;-77.518;2023-07-13T03:15:17;21;19;
65012;PMS5003;51715;39.432;-77.518;2023-07-13T03:17:46;19;19;
65012;PMS5003;51715;39.432;-77.518;2023-07-13T03:20:14;21;17;
65012;PMS5003;51715;39.432;-77.518;2023-07-13T03:22:43;18;18;
65012;PMS5003;51715;39.432;-77.518;2023-07-13T03:25:11;21;21;
65012;PMS5003;51715;39.432;-77.518;2023-07-13T03:27:39;17;17;
65012;PMS5003;51715;39.432;-77.518;2023-07-13T03:30:08;20;18;
65012;PMS5003;51715;39.432;-77.518;2023-07-13T03:32:37;20;18;
65012;PMS5003;51715;39.432;-77.518;2023-07-13T03:35:05;19;18;
65012;PMS5003;51715;39.432;-77.518;2023-07-13T03:37:33;21;20;
65012;PMS5003;51715;39.432;-77.518;2023-07-13T03:40:02;22;19;
65012;PMS5003;51715;39.432;-77.518;2023-07-13T03:42:30;20;20;
65012;PMS5003;51715;39.432;-77.518;2023-07-13T03:44:59;19;18;
65012;PMS5003;51715;39.432;-77.518;2023-07-13T03:47:27;19;19;
65012;PMS5003;51715;39.432;-77.518;2023-07-13T03:49:55;23;23;
65012;PMS5003;51715;39.432;-77.518;2023-07-13T03:52:24;18;18;
65012;PMS5003;51715;39.432;-77.518;2023-07-13T03:54:52;18;18;
65012;PMS5003;51715;39.432;-77.518;2023-07-13T03:57:20;23;23;
65012;PMS5003;51715;39.432;-77.518;2023-07-13T03:59:48;23;23;
65012;PMS5003;51715;39.432;-77.518;2023-07-13T04:04:05;18;18;
65012;PMS5003;51715;39.432;-77.518;2023-07-13T04:06:34;16;16;
65012;PMS5003;51715;39.432;-77.518;2023-07-13T04:09:03;21;19;
65012;PMS5003;51715;39.432;-77.518;2023-07-13T04:11:32;17;16;
65012;PMS5003;51715;39.432;-77.518;2023-07-13T04:14:00;16;16;
65012;PMS5003;51715;39.432;-77.518;2023-07-13T04:16:29;20;18;
65012;PMS5003;51715;39.432;-77.518;2023-07-13T04:18:57;17;17;
65012;PMS5003;51715;39.432;-77.518;2023-07-13T04:21:25;20;20;
65012;PMS5003;51715;39.432;-77.518;2023-07-13T04:23:53;19;19;
65012;PMS5003;51715;39.432;-77.518;2023-07-13T04:26:21;23;23;
65012;PMS5003;51715;39.432;-77.518;2023-07-13T04:28:49;20;20;
65012;PMS5003;51715;39.432;-77.518;2023-07-13T04:31:17;20;18;
65012;PMS5003;51715;39.432;-77.518;2023-07-13T04:33:46;22;22;
65012;PMS5003;51715;39.432;-77.518;2023-07-13T04:36:14;23;23;
65012;PMS5003;51715;39.432;-77.518;2023-07-13T04:38:43;21;20;
65012;PMS5003;51715;39.432;-77.518;2023-07-13T04:41:12;21;19;
65012;PMS5003;51715;39.432;-77.518;2023-07-13T04:43:41;22;21;
65012;PMS5003;51715;39.432;-77.518;2023-07-13T04:46:10;20;20;
65012;PMS5003;51715;39.432;-77.518;2023-07-13T04:48:40;20;20;
65012;PMS5003;51715;39.432;-77.518;2023-07-13T04:51:08;20;19;
65012;PMS5003;51715;39.432;-77.518;2023-07-13T04:53:38;20;20;
65012;PMS5003;51715;39.432;-77.518;2023-07-13T04:56:06;21;20;
65012;PMS5003;51715;39.432;-77.518;2023-07-13T04:58:34;17;17;
65012;PMS5003;51715;39.432;-77.518;2023-07-13T05:01:03;19;19;
65012;PMS5003;51715;39.432;-77.518;2023-07-13T05:03:33;23;23;
65012;PMS5003;51715;39.432;-77.518;2023-07-13T05:06:02;21;21;
65012;PMS5003;51715;39.432;-77.518;2023-07-13T05:08:32;21;19;
65012;PMS5003;51715;39.432;-77.518;2023-07-13T05:11:00;21;20;
65012;PMS5003;51715;39.432;-77.518;2023-07-13T05:13:30;19;19;
65012;PMS5003;51715;39.432;-77.518;2023-07-13T05:15:59;25;25;
65012;PMS5003;51715;39.432;-77.518;2023-07-13T05:18:30;18;18;
65012;PMS5003;51715;39.432;-77.518;2023-07-13T05:20:59;26;22;
65012;PMS5003;51715;39.432;-77.518;2023-07-13T05:23:29;19;19;
65012;PMS5003;51715;39.432;-77.518;2023-07-13T05:25:58;28;24;
65012;PMS5003;51715;39.432;-77.518;2023-07-13T05:28:27;24;24;
65012;PMS5003;51715;39.432;-77.518;2023-07-13T05:30:57;21;20;
65012;PMS5003;51715;39.432;-77.518;2023-07-13T05:33:25;18;18;
65012;PMS5003;51715;39.432;-77.518;2023-07-13T05:35:54;22;21;
65012;PMS5003;51715;39.432;-77.518;2023-07-13T05:38:22;24;24;
65012;PMS5003;51715;39.432;-77.518;2023-07-13T05:40:50;22;21;
65012;PMS5003;51715;39.432;-77.518;2023-07-13T05:43:21;20;20;
65012;PMS5003;51715;39.432;-77.518;2023-07-13T05:45:50;26;26;
65012;PMS5003;51715;39.432;-77.518;2023-07-13T05:48:20;21;21;
65012;PMS5003;51715;39.432;-77.518;2023-07-13T05:50:49;20;20;
65012;PMS5003;51715;39.432;-77.518;2023-07-13T05:53:17;23;23;
65012;PMS5003;51715;39.432;-77.518;2023-07-13T05:55:47;21;18;
65012;PMS5003;51715;39.432;-77.518;2023-07-13T05:58:15;23;22;
65012;PMS5003;51715;39.432;-77.518;2023-07-13T06:00:44;22;20;
65012;PMS5003;51715;39.432;-77.518;2023-07-13T06:03:12;22;20;
65012;PMS5003;51715;39.432;-77.518;2023-07-13T06:05:43;22;22;
65012;PMS5003;51715;39.432;-77.518;2023-07-13T06:08:12;19;19;
65012;PMS5003;51715;39.432;-77.518;2023-07-13T06:10:40;20;19;
65012;PMS5003;51715;39.432;-77.518;2023-07-13T06:13:08;21;20;
65012;PMS5003;51715;39.432;-77.518;2023-07-13T06:15:37;21;21;
65012;PMS5003;51715;39.432;-77.518;2023-07-13T06:18:04;22;21;
65012;PMS5003;51715;39.432;-77.518;2023-07-13T06:20:33;24;24;
65012;PMS5003;51715;39.432;-77.518;2023-07-13T06:23:02;23;21;
65012;PMS5003;51715;39.432;-77.518;2023-07-13T06:25:30;24;24;
65012;PMS5003;51715;39.432;-77.518;2023-07-13T06:27:59;25;25;
65012;PMS5003;51715;39.432;-77.518;2023-07-13T06:30:27;24;23;
65012;PMS5003;51715;39.432;-77.518;2023-07-13T06:32:55;21;21;
65012;PMS5003;51715;39.432;-77.518;2023-07-13T06:35:24;26;25;
65012;PMS5003;51715;39.432;-77.518;2023-07-13T06:37:52;21;21;
65012;PMS5003;51715;39.432;-77.518;2023-07-13T06:40:20;29;27;
65012;PMS5003;51715;39.432;-77.518;2023-07-13T06:42:48;23;23;
65012;PMS5003;51715;39.432;-77.518;2023-07-13T06:45:16;24;23;
65012;PMS5003;51715;39.432;-77.518;2023-07-13T06:47:44;25;25;
65012;PMS5003;51715;39.432;-77.518;2023-07-13T06:50:13;20;18;
65012;PMS5003;51715;39.432;-77.518;2023-07-13T06:52:41;21;21;
65012;PMS5003;51715;39.432;-77.518;2023-07-13T06:55:09;20;20;
65012;PMS5003;51715;39.432;-77.518;2023-07-13T06:57:37;21;21;
65012;PMS5003;51715;39.432;-77.518;2023-07-13T07:00:05;23;23;
65012;PMS5003;51715;39.432;-77.518;2023-07-13T07:02:34;23;23;
65012;PMS5003;51715;39.432;-77.518;2023-07-13T07:05:02;19;19;
65012;PMS5003;51715;39.432;-77.518;2023-07-13T07:07:31;23;23;
65012;PMS5003;51715;39.432;-77.518;2023-07-13T07:09:59;25;24;
65012;PMS5003;51715;39.432;-77.518;2023-07-13T07:12:27;19;18;
65012;PMS5003;51715;39.432;-77.518;2023-07-13T07:14:55;20;19;
65012;PMS5003;51715;39.432;-77.518;2023-07-13T07:17:24;19;19;
65012;PMS5003;51715;39.432;-77.518;2023-07-13T07:19:52;24;23;
65012;PMS5003;51715;39.432;-77.518;2023-07-13T07:22:20;24;24;
65012;PMS5003;51715;39.432;-77.518;2023-07-13T07:24:49;23;21;
65012;PMS5003;51715;39.432;-77.518;2023-07-13T07:27:17;22;22;
65012;PMS5003;51715;39.432;-77.518;2023-07-13T07:29:45;21;21;
65012;PMS5003;51715;39.432;-77.518;2023-07-13T07:32:14;20;20;
65012;PMS5003;51715;39.432;-77.518;2023-07-13T07:34:42;24;23;
65012;PMS5003;51715;39.432;-77.518;2023-07-13T07:37:12;24;20;
65012;PMS5003;51715;39.432;-77.518;2023-07-13T07:39:41;20;20;
65012;PMS5003;51715;39.432;-77.518;2023-07-13T07:42:10;21;21;
65012;PMS5003;51715;39.432;-77.518;2023-07-13T07:44:39;21;20;
65012;PMS5003;51715;39.432;-77.518;2023-07-13T07:47:08;20;19;
65012;PMS5003;51715;39.432;-77.518;2023-07-13T07:49:37;25;25;
65012;PMS5003;51715;39.432;-77.518;2023-07-13T07:52:05;22;22;
65012;PMS5003;51715;39.432;-77.518;2023-07-13T07:54:34;20;20;
65012;PMS5003;51715;39.432;-77.518;2023-07-13T07:57:02;19;19;
65012;PMS5003;51715;39.432;-77.518;2023-07-13T07:59:31;21;20;
65012;PMS5003;51715;39.432;-77.518;2023-07-13T08:01:59;24;24;
65012;PMS5003;51715;39.432;-77.518;2023-07-13T08:04:27;24;23;
65012;PMS5003;51715;39.432;-77.518;2023-07-13T08:06:56;25;23;
65012;PMS5003;51715;39.432;-77.518;2023-07-13T08:09:24;23;23;
65012;PMS5003;51715;39.432;-77.518;2023-07-13T08:11:52;23;22;
65012;PMS5003;51715;39.432;-77.518;2023-07-13T08:14:20;23;23;
65012;PMS5003;51715;39.432;-77.518;2023-07-13T08:16:49;26;24;
65012;PMS5003;51715;39.432;-77.518;2023-07-13T08:19:17;23;22;
65012;PMS5003;51715;39.432;-77.518;2023-07-13T08:21:45;25;22;
65012;PMS5003;51715;39.432;-77.518;2023-07-13T08:24:13;27;25;
65012;PMS5003;51715;39.432;-77.518;2023-07-13T08:26:41;21;21;
65012;PMS5003;51715;39.432;-77.518;2023-07-13T08:29:09;24;23;
65012;PMS5003;51715;39.432;-77.518;2023-07-13T08:31:37;27;27;
65012;PMS5003;51715;39.432;-77.518;2023-07-13T08:34:06;22;22;
65012;PMS5003;51715;39.432;-77.518;2023-07-13T08:36:34;25;24;
65012;PMS5003;51715;39.432;-77.518;2023-07-13T08:39:02;24;24;
65012;PMS5003;51715;39.432;-77.518;2023-07-13T08:41:30;23;23;
65012;PMS5003;51715;39.432;-77.518;2023-07-13T08:43:59;23;23;
65012;PMS5003;51715;39.432;-77.518;2023-07-13T08:46:32;22;22;
65012;PMS5003;51715;39.432;-77.518;2023-07-13T08:49:04;21;21;
65012;PMS5003;51715;39.432;-77.518;2023-07-13T08:51:40;28;26;
65012;PMS5003;51715;39.432;-77.518;2023-07-13T08:54:19;25;24;
65012;PMS5003;51715;39.432;-77.518;2023-07-13T08:56:54;25;23;
65012;PMS5003;51715;39.432;-77.518;2023-07-13T08:59:25;25;24;
65012;PMS5003;51715;39.432;-77.518;2023-07-13T09:02:00;28;27;
65012;PMS5003;51715;39.432;-77.518;2023-07-13T09:04:44;22;21;
65012;PMS5003;51715;39.432;-77.518;2023-07-13T09:07:19;27;22;
65012;PMS5003;51715;39.432;-77.518;2023-07-13T09:09:59;21;20;
65012;PMS5003;51715;39.432;-77.518;2023-07-13T09:12:39;22;21;
65012;PMS5003;51715;39.432;-77.518;2023-07-13T09:15:17;22;21;
65012;PMS5003;51715;39.432;-77.518;2023-07-13T09:17:52;25;24;
65012;PMS5003;51715;39.432;-77.518;2023-07-13T09:20:26;25;23;
65012;PMS5003;51715;39.432;-77.518;2023-07-13T09:22:59;25;23;
65012;PMS5003;51715;39.432;-77.518;2023-07-13T09:25:32;23;23;
65012;PMS5003;51715;39.432;-77.518;2023-07-13T09:28:02;26;24;
65012;PMS5003;51715;39.432;-77.518;2023-07-13T09:30:40;22;22;
65012;PMS5003;51715;39.432;-77.518;2023-07-13T09:33:16;21;21;
65012;PMS5003;51715;39.432;-77.518;2023-07-13T09:35:45;20;20;
65012;PMS5003;51715;39.432;-77.518;2023-07-13T09:38:13;27;26;
65012;PMS5003;51715;39.432;-77.518;2023-07-13T09:40:48;25;24;
65012;PMS5003;51715;39.432;-77.518;2023-07-13T09:43:26;27;24;
65012;PMS5003;51715;39.432;-77.518;2023-07-13T09:45:55;20;20;
65012;PMS5003;51715;39.432;-77.518;2023-07-13T09:48:24;23;23;
65012;PMS5003;51715;39.432;-77.518;2023-07-13T09:51:04;21;21;
65012;PMS5003;51715;39.432;-77.518;2023-07-13T09:53:44;26;26;
65012;PMS5003;51715;39.432;-77.518;2023-07-13T09:56:21;20;20;
65012;PMS5003;51715;39.432;-77.518;2023-07-13T09:58:54;25;25;
65012;PMS5003;51715;39.432;-77.518;2023-07-13T10:01:31;25;21;
65012;PMS5003;51715;39.432;-77.518;2023-07-13T10:04:00;26;26;
65012;PMS5003;51715;39.432;-77.518;2023-07-13T10:06:36;24;23;
65012;PMS5003;51715;39.432;-77.518;2023-07-13T10:09:06;23;23;
65012;PMS5003;51715;39.432;-77.518;2023-07-13T10:11:35;23;22;
65012;PMS5003;51715;39.432;-77.518;2023-07-13T10:14:10;22;20;
65012;PMS5003;51715;39.432;-77.518;2023-07-13T10:16:42;25;25;
65012;PMS5003;51715;39.432;-77.518;2023-07-13T10:19:14;27;23;
65012;PMS5003;51715;39.432;-77.518;2023-07-13T10:21:49;25;25;
65012;PMS5003;51715;39.432;-77.518;2023-07-13T10:24:21;26;24;
65012;PMS5003;51715;39.432;-77.518;2023-07-13T10:26:52;28;27;
65012;PMS5003;51715;39.432;-77.518;2023-07-13T10:29:24;25;25;
65012;PMS5003;51715;39.432;-77.518;2023-07-13T10:31:56;24;23;
65012;PMS5003;51715;39.432;-77.518;2023-07-13T10:34:24;23;22;
65012;PMS5003;51715;39.432;-77.518;2023-07-13T10:36:53;24;23;
65012;PMS5003;51715;39.432;-77.518;2023-07-13T10:39:22;27;27;
65012;PMS5003;51715;39.432;-77.518;2023-07-13T10:41:55;28;27;
65012;PMS5003;51715;39.432;-77.518;2023-07-13T10:44:28;27;27;
65012;PMS5003;51715;39.432;-77.518;2023-07-13T10:46:58;28;27;
65012;PMS5003;51715;39.432;-77.518;2023-07-13T10:49:28;25;25;
65012;PMS5003;51715;39.432;-77.518;2023-07-13T10:51:59;23;22;
65012;PMS5003;51715;39.432;-77.518;2023-07-13T10:54:30;28;27;
65012;PMS5003;51715;39.432;-77.518;2023-07-13T10:57:14;24;24;
65012;PMS5003;51715;39.432;-77.518;2023-07-13T10:59:46;25;25;
65012;PMS5003;51715;39.432;-77.518;2023-07-13T11:02:22;23;23;
65012;PMS5003;51715;39.432;-77.518;2023-07-13T11:04:53;23;22;
65012;PMS5003;51715;39.432;-77.518;2023-07-13T11:07:24;26;25;
65012;PMS5003;51715;39.432;-77.518;2023-07-13T11:09:54;20;20;
65012;PMS5003;51715;39.432;-77.518;2023-07-13T11:12:28;26;24;
65012;PMS5003;51715;39.432;-77.518;2023-07-13T11:15:32;26;26;
65012;PMS5003;51715;39.432;-77.518;2023-07-13T11:18:19;24;24;
65012;PMS5003;51715;39.432;-77.518;2023-07-13T11:20:49;24;24;
65012;PMS5003;51715;39.432;-77.518;2023-07-13T11:23:20;27;26;
65012;PMS5003;51715;39.432;-77.518;2023-07-13T11:26:37;25;22;
65012;PMS5003;51715;39.432;-77.518;2023-07-13T11:29:09;28;28;
65012;PMS5003;51715;39.432;-77.518;2023-07-13T11:31:51;24;23;
65012;PMS5003;51715;39.432;-77.518;2023-07-13T11:34:23;24;23;
65012;PMS5003;51715;39.432;-77.518;2023-07-13T11:36:56;26;25;
65012;PMS5003;51715;39.432;-77.518;2023-07-13T11:39:27;24;23;
65012;PMS5003;51715;39.432;-77.518;2023-07-13T11:42:00;29;26;
65012;PMS5003;51715;39.432;-77.518;2023-07-13T11:44:31;20;20;
65012;PMS5003;51715;39.432;-77.518;2023-07-13T11:47:07;30;28;
65012;PMS5003;51715;39.432;-77.518;2023-07-13T11:49:40;25;22;
65012;PMS5003;51715;39.432;-77.518;2023-07-13T11:52:11;30;27;
65012;PMS5003;51715;39.432;-77.518;2023-07-13T11:54:47;28;28;
65012;PMS5003;51715;39.432;-77.518;2023-07-13T11:57:19;30;29;
65012;PMS5003;51715;39.432;-77.518;2023-07-13T11:59:53;33;30;
65012;PMS5003;51715;39.432;-77.518;2023-07-13T12:02:25;23;21;
65012;PMS5003;51715;39.432;-77.518;2023-07-13T12:04:57;21;21;
65012;PMS5003;51715;39.432;-77.518;2023-07-13T12:07:29;30;27;
65012;PMS5003;51715;39.432;-77.518;2023-07-13T12:10:00;25;23;
65012;PMS5003;51715;39.432;-77.518;2023-07-13T12:12:29;24;24;
65012;PMS5003;51715;39.432;-77.518;2023-07-13T12:14:57;31;30;
65012;PMS5003;51715;39.432;-77.518;2023-07-13T12:17:25;27;26;
65012;PMS5003;51715;39.432;-77.518;2023-07-13T12:19:55;25;24;
65012;PMS5003;51715;39.432;-77.518;2023-07-13T12:22:24;25;24;
65012;PMS5003;51715;39.432;-77.518;2023-07-13T12:24:54;18;18;
65012;PMS5003;51715;39.432;-77.518;2023-07-13T12:27:25;25;24;
65012;PMS5003;51715;39.432;-77.518;2023-07-13T12:29:58;31;31;
65012;PMS5003;51715;39.432;-77.518;2023-07-13T12:32:32;25;25;
65012;PMS5003;51715;39.432;-77.518;2023-07-13T12:35:06;27;25;
65012;PMS5003;51715;39.432;-77.518;2023-07-13T12:37:42;23;20;
65012;PMS5003;51715;39.432;-77.518;2023-07-13T12:40:14;24;24;
65012;PMS5003;51715;39.432;-77.518;2023-07-13T12:42:43;25;24;
65012;PMS5003;51715;39.432;-77.518;2023-07-13T12:45:17;25;25;
65012;PMS5003;51715;39.432;-77.518;2023-07-13T12:47:48;27;24;
65012;PMS5003;51715;39.432;-77.518;2023-07-13T12:50:18;21;21;
65012;PMS5003;51715;39.432;-77.518;2023-07-13T12:52:50;26;25;
65012;PMS5003;51715;39.432;-77.518;2023-07-13T12:55:20;22;22;
65012;PMS5003;51715;39.432;-77.518;2023-07-13T12:57:51;25;25;
65012;PMS5003;51715;39.432;-77.518;2023-07-13T13:00:22;24;24;
65012;PMS5003;51715;39.432;-77.518;2023-07-13T13:02:53;29;26;
65012;PMS5003;51715;39.432;-77.518;2023-07-13T13:05:25;29;28;
65012;PMS5003;51715;39.432;-77.518;2023-07-13T13:07:54;28;28;
65012;PMS5003;51715;39.432;-77.518;2023-07-13T13:10:23;23;23;
65012;PMS5003;51715;39.432;-77.518;2023-07-13T13:12:51;24;24;
65012;PMS5003;51715;39.432;-77.518;2023-07-13T13:15:20;25;25;
65012;PMS5003;51715;39.432;-77.518;2023-07-13T13:17:48;25;25;
65012;PMS5003;51715;39.432;-77.518;2023-07-13T13:20:17;27;25;
65012;PMS5003;51715;39.432;-77.518;2023-07-13T13:22:47;26;25;
65012;PMS5003;51715;39.432;-77.518;2023-07-13T13:25:16;23;23;
65012;PMS5003;51715;39.432;-77.518;2023-07-13T13:27:45;28;27;
65012;PMS5003;51715;39.432;-77.518;2023-07-13T13:30:16;26;25;
65012;PMS5003;51715;39.432;-77.518;2023-07-13T13:32:46;29;29;
65012;PMS5003;51715;39.432;-77.518;2023-07-13T13:35:16;24;24;
65012;PMS5003;51715;39.432;-77.518;2023-07-13T13:37:47;25;23;
65012;PMS5003;51715;39.432;-77.518;2023-07-13T13:40:16;25;24;
65012;PMS5003;51715;39.432;-77.518;2023-07-13T13:42:46;22;22;
65012;PMS5003;51715;39.432;-77.518;2023-07-13T13:45:14;20;20;
65012;PMS5003;51715;39.432;-77.518;2023-07-13T13:47:43;21;21;
65012;PMS5003;51715;39.432;-77.518;2023-07-13T13:50:13;23;23;
65012;PMS5003;51715;39.432;-77.518;2023-07-13T13:52:42;22;21;
65012;PMS5003;51715;39.432;-77.518;2023-07-13T13:55:12;17;17;
65012;PMS5003;51715;39.432;-77.518;2023-07-13T13:57:41;20;20;
65012;PMS5003;51715;39.432;-77.518;2023-07-13T14:00:09;21;19;
65012;PMS5003;51715;39.432;-77.518;2023-07-13T14:02:39;20;19;
65012;PMS5003;51715;39.432;-77.518;2023-07-13T14:05:11;19;19;
65012;PMS5003;51715;39.432;-77.518;2023-07-13T14:07:41;24;24;
65012;PMS5003;51715;39.432;-77.518;2023-07-13T14:10:11;22;22;
65012;PMS5003;51715;39.432;-77.518;2023-07-13T14:12:42;20;20;
65012;PMS5003;51715;39.432;-77.518;2023-07-13T14:15:13;20;20;
65012;PMS5003;51715;39.432;-77.518;2023-07-13T14:17:47;25;23;
65012;PMS5003;51715;39.432;-77.518;2023-07-13T14:20:14;22;21;
65012;PMS5003;51715;39.432;-77.518;2023-07-13T14:22:43;20;20;
65012;PMS5003;51715;39.432;-77.518;2023-07-13T14:25:11;21;21;
65012;PMS5003;51715;39.432;-77.518;2023-07-13T14:27:41;18;18;
65012;PMS5003;51715;39.432;-77.518;2023-07-13T14:30:12;19;17;
65012;PMS5003;51715;39.432;-77.518;2023-07-13T14:32:41;20;20;
65012;PMS5003;51715;39.432;-77.518;2023-07-13T14:35:10;17;17;
65012;PMS5003;51715;39.432;-77.518;2023-07-13T14:37:39;21;19;
65012;PMS5003;51715;39.432;-77.518;2023-07-13T14:40:13;18;18;
65012;PMS5003;51715;39.432;-77.518;2023-07-13T14:42:44;22;22;
65012;PMS5003;51715;39.432;-77.518;2023-07-13T14:45:12;18;18;
65012;PMS5003;51715;39.432;-77.518;2023-07-13T14:47:42;19;19;
65012;PMS5003;51715;39.432;-77.518;2023-07-13T14:50:14;22;22;
65012;PMS5003;51715;39.432;-77.518;2023-07-13T14:52:43;18;17;
65012;PMS5003;51715;39.432;-77.518;2023-07-13T14:55:12;16;16;
65012;PMS5003;51715;39.432;-77.518;2023-07-13T14:57:42;18;17;
65012;PMS5003;51715;39.432;-77.518;2023-07-13T15:00:13;16;16;
65012;PMS5003;51715;39.432;-77.518;2023-07-13T15:02:43;19;16;
65012;PMS5003;51715;39.432;-77.518;2023-07-13T15:05:15;19;19;
65012;PMS5003;51715;39.432;-77.518;2023-07-13T15:07:45;14;13;
65012;PMS5003;51715;39.432;-77.518;2023-07-13T15:10:15;18;16;
65012;PMS5003;51715;39.432;-77.518;2023-07-13T15:12:45;13;13;
65012;PMS5003;51715;39.432;-77.518;2023-07-13T15:15:14;14;14;
65012;PMS5003;51715;39.432;-77.518;2023-07-13T15:17:44;14;13;
65012;PMS5003;51715;39.432;-77.518;2023-07-13T15:20:18;14;14;
65012;PMS5003;51715;39.432;-77.518;2023-07-13T15:22:50;17;17;
65012;PMS5003;51715;39.432;-77.518;2023-07-13T15:25:19;15;15;
65012;PMS5003;51715;39.432;-77.518;2023-07-13T15:27:49;16;16;
65012;PMS5003;51715;39.432;-77.518;2023-07-13T15:30:17;13;13;
65012;PMS5003;51715;39.432;-77.518;2023-07-13T15:32:47;15;15;
65012;PMS5003;51715;39.432;-77.518;2023-07-13T15:35:16;18;17;
65012;PMS5003;51715;39.432;-77.518;2023-07-13T15:37:46;14;13;
65012;PMS5003;51715;39.432;-77.518;2023-07-13T15:40:15;16;14;
65012;PMS5003;51715;39.432;-77.518;2023-07-13T15:42:45;18;18;
65012;PMS5003;51715;39.432;-77.518;2023-07-13T15:45:15;17;17;
65012;PMS5003;51715;39.432;-77.518;2023-07-13T15:47:44;18;16;
65012;PMS5003;51715;39.432;-77.518;2023-07-13T15:50:13;14;14;
65012;PMS5003;51715;39.432;-77.518;2023-07-13T15:52:43;15;15;
65012;PMS5003;51715;39.432;-77.518;2023-07-13T15:55:14;13;13;
65012;PMS5003;51715;39.432;-77.518;2023-07-13T15:57:44;14;14;
65012;PMS5003;51715;39.432;-77.518;2023-07-13T16:00:23;15;15;
65012;PMS5003;51715;39.432;-77.518;2023-07-13T16:02:53;17;17;
65012;PMS5003;51715;39.432;-77.518;2023-07-13T16:05:22;15;15;
65012;PMS5003;51715;39.432;-77.518;2023-07-13T16:07:52;18;15;